sensor_id;sensor_type;location;lat;lon;timestamp;P1;durP1;ratioP1;P2;durP2;ratioP2
25345;SDS011;13300;51.032;3.710;2023-03-19T00:01:15;6.30;;;5.18;;
25345;SDS011;13300;51.032;3.710;2023-03-19T00:03:41;6.47;;;5.38;;
25345;SDS011;13300;51.032;3.710;2023-03-19T00:06:08;6.97;;;5.88;;
25345;SDS011;13300;51.032;3.710;2023-03-19T00:08:34;8.60;;;5.60;;
25345;SDS011;13300;51.032;3.710;2023-03-19T00:11:08;8.40;;;5.70;;
25345;SDS011;13300;51.032;3.710;2023-03-19T00:13:38;7.00;;;5.35;;
25345;SDS011;13300;51.032;3.710;2023-03-19T00:16:05;7.85;;;5.30;;
25345;SDS011;13300;51.032;3.710;2023-03-19T00:18:31;8.93;;;5.22;;
25345;SDS011;13300;51.032;3.710;2023-03-19T00:20:57;7.30;;;5.80;;
25345;SDS011;13300;51.032;3.710;2023-03-19T00:23:23;6.32;;;5.43;;
25345;SDS011;13300;51.032;3.710;2023-03-19T00:25:49;10.27;;;5.75;;
25345;SDS011;13300;51.032;3.710;2023-03-19T00:28:15;8.27;;;5.70;;
25345;SDS011;13300;51.032;3.710;2023-03-19T00:30:42;8.23;;;5.72;;
25345;SDS011;13300;51.032;3.710;2023-03-19T00:33:09;7.13;;;5.63;;
25345;SDS011;13300;51.032;3.710;2023-03-19T00:35:35;6.90;;;5.53;;
25345;SDS011;13300;51.032;3.710;2023-03-19T00:38:03;7.88;;;5.97;;
25345;SDS011;13300;51.032;3.710;2023-03-19T00:40:28;8.65;;;5.90;;
25345;SDS011;13300;51.032;3.710;2023-03-19T00:42:54;12.02;;;6.63;;
25345;SDS011;13300;51.032;3.710;2023-03-19T00:45:21;8.07;;;6.25;;
25345;SDS011;13300;51.032;3.710;2023-03-19T00:47:47;10.07;;;6.80;;
25345;SDS011;13300;51.032;3.710;2023-03-19T00:50:14;8.27;;;6.75;;
25345;SDS011;13300;51.032;3.710;2023-03-19T00:52:39;9.27;;;7.25;;
25345;SDS011;13300;51.032;3.710;2023-03-19T00:55:05;9.02;;;7.13;;
25345;SDS011;13300;51.032;3.710;2023-03-19T00:57:31;9.93;;;7.55;;
25345;SDS011;13300;51.032;3.710;2023-03-19T00:59:57;7.90;;;7.07;;
25345;SDS011;13300;51.032;3.710;2023-03-19T01:05:50;9.75;;;7.47;;
25345;SDS011;13300;51.032;3.710;2023-03-19T01:08:16;11.13;;;7.55;;
25345;SDS011;13300;51.032;3.710;2023-03-19T01:10:43;10.48;;;7.25;;
25345;SDS011;13300;51.032;3.710;2023-03-19T01:13:12;10.75;;;7.93;;
25345;SDS011;13300;51.032;3.710;2023-03-19T01:19:09;14.30;;;8.68;;
25345;SDS011;13300;51.032;3.710;2023-03-19T01:25:15;12.00;;;9.05;;
25345;SDS011;13300;51.032;3.710;2023-03-19T01:30:31;12.90;;;8.65;;
25345;SDS011;13300;51.032;3.710;2023-03-19T01:32:57;15.10;;;8.98;;
25345;SDS011;13300;51.032;3.710;2023-03-19T01:35:35;11.95;;;8.30;;
25345;SDS011;13300;51.032;3.710;2023-03-19T01:38:01;10.02;;;8.18;;
25345;SDS011;13300;51.032;3.710;2023-03-19T01:40:27;12.27;;;8.70;;
25345;SDS011;13300;51.032;3.710;2023-03-19T01:45:46;11.45;;;7.70;;
25345;SDS011;13300;51.032;3.710;2023-03-19T01:51:13;13.43;;;9.15;;
25345;SDS011;13300;51.032;3.710;2023-03-19T01:53:44;13.57;;;9.23;;
25345;SDS011;13300;51.032;3.710;2023-03-19T01:56:15;15.70;;;8.98;;
25345;SDS011;13300;51.032;3.710;2023-03-19T01:58:44;12.13;;;9.05;;
25345;SDS011;13300;51.032;3.710;2023-03-19T02:01:12;16.52;;;8.90;;
25345;SDS011;13300;51.032;3.710;2023-03-19T02:03:44;13.13;;;8.75;;
25345;SDS011;13300;51.032;3.710;2023-03-19T02:09:32;16.45;;;8.75;;
25345;SDS011;13300;51.032;3.710;2023-03-19T02:11:58;12.60;;;8.45;;
25345;SDS011;13300;51.032;3.710;2023-03-19T02:14:25;15.00;;;8.43;;
25345;SDS011;13300;51.032;3.710;2023-03-19T02:16:51;12.82;;;8.57;;
25345;SDS011;13300;51.032;3.710;2023-03-19T02:19:31;12.95;;;9.20;;
25345;SDS011;13300;51.032;3.710;2023-03-19T02:23:01;11.32;;;8.18;;
25345;SDS011;13300;51.032;3.710;2023-03-19T02:25:40;11.63;;;7.90;;
25345;SDS011;13300;51.032;3.710;2023-03-19T02:28:28;13.18;;;8.13;;
25345;SDS011;13300;51.032;3.710;2023-03-19T02:34:32;12.63;;;7.85;;
25345;SDS011;13300;51.032;3.710;2023-03-19T02:40:33;13.02;;;8.65;;
25345;SDS011;13300;51.032;3.710;2023-03-19T02:46:34;15.68;;;7.90;;
25345;SDS011;13300;51.032;3.710;2023-03-19T02:49:00;14.65;;;8.50;;
25345;SDS011;13300;51.032;3.710;2023-03-19T02:51:26;12.70;;;7.63;;
25345;SDS011;13300;51.032;3.710;2023-03-19T02:53:52;11.73;;;7.65;;
25345;SDS011;13300;51.032;3.710;2023-03-19T02:56:18;11.60;;;7.97;;
25345;SDS011;13300;51.032;3.710;2023-03-19T02:58:56;16.92;;;8.25;;
25345;SDS011;13300;51.032;3.710;2023-03-19T03:01:22;14.95;;;8.48;;
25345;SDS011;13300;51.032;3.710;2023-03-19T03:03:48;13.95;;;7.57;;
25345;SDS011;13300;51.032;3.710;2023-03-19T03:22:35;14.18;;;8.50;;
25345;SDS011;13300;51.032;3.710;2023-03-19T03:25:02;11.00;;;7.93;;
25345;SDS011;13300;51.032;3.710;2023-03-19T03:30:27;15.20;;;7.97;;
25345;SDS011;13300;51.032;3.710;2023-03-19T03:32:53;13.20;;;8.13;;
25345;SDS011;13300;51.032;3.710;2023-03-19T03:35:19;16.88;;;8.07;;
25345;SDS011;13300;51.032;3.710;2023-03-19T03:37:49;16.55;;;8.23;;
25345;SDS011;13300;51.032;3.710;2023-03-19T03:40:22;16.53;;;8.57;;
25345;SDS011;13300;51.032;3.710;2023-03-19T03:45:34;12.35;;;8.50;;
25345;SDS011;13300;51.032;3.710;2023-03-19T03:48:01;15.35;;;7.78;;
25345;SDS011;13300;51.032;3.710;2023-03-19T03:50:27;13.98;;;7.95;;
25345;SDS011;13300;51.032;3.710;2023-03-19T03:52:53;14.23;;;7.82;;
25345;SDS011;13300;51.032;3.710;2023-03-19T03:55:19;17.00;;;8.35;;
25345;SDS011;13300;51.032;3.710;2023-03-19T04:07:52;17.25;;;8.43;;
25345;SDS011;13300;51.032;3.710;2023-03-19T04:10:18;20.10;;;8.25;;
25345;SDS011;13300;51.032;3.710;2023-03-19T04:12:44;18.65;;;8.23;;
25345;SDS011;13300;51.032;3.710;2023-03-19T04:15:10;15.88;;;8.82;;
25345;SDS011;13300;51.032;3.710;2023-03-19T04:17:36;17.10;;;9.23;;
25345;SDS011;13300;51.032;3.710;2023-03-19T04:20:04;15.02;;;9.30;;
25345;SDS011;13300;51.032;3.710;2023-03-19T04:22:35;20.23;;;8.40;;
25345;SDS011;13300;51.032;3.710;2023-03-19T04:25:01;17.42;;;8.18;;
25345;SDS011;13300;51.032;3.710;2023-03-19T04:27:28;21.35;;;9.63;;
25345;SDS011;13300;51.032;3.710;2023-03-19T04:33:37;18.40;;;9.93;;
25345;SDS011;13300;51.032;3.710;2023-03-19T04:36:03;19.58;;;9.52;;
25345;SDS011;13300;51.032;3.710;2023-03-19T04:38:29;23.38;;;9.95;;
25345;SDS011;13300;51.032;3.710;2023-03-19T04:40:56;24.17;;;10.60;;
25345;SDS011;13300;51.032;3.710;2023-03-19T04:43:22;21.42;;;10.35;;
25345;SDS011;13300;51.032;3.710;2023-03-19T04:45:48;21.95;;;10.65;;
25345;SDS011;13300;51.032;3.710;2023-03-19T04:48:25;18.38;;;9.90;;
25345;SDS011;13300;51.032;3.710;2023-03-19T04:50:51;20.90;;;9.85;;
25345;SDS011;13300;51.032;3.710;2023-03-19T04:53:20;22.03;;;9.63;;
25345;SDS011;13300;51.032;3.710;2023-03-19T04:55:58;17.30;;;9.65;;
25345;SDS011;13300;51.032;3.710;2023-03-19T05:01:57;18.50;;;8.57;;
25345;SDS011;13300;51.032;3.710;2023-03-19T05:10:50;23.92;;;8.13;;
25345;SDS011;13300;51.032;3.710;2023-03-19T05:13:24;21.95;;;8.85;;
25345;SDS011;13300;51.032;3.710;2023-03-19T05:15:51;20.67;;;8.05;;
25345;SDS011;13300;51.032;3.710;2023-03-19T05:18:19;20.20;;;8.35;;
25345;SDS011;13300;51.032;3.710;2023-03-19T05:20:51;19.65;;;8.07;;
25345;SDS011;13300;51.032;3.710;2023-03-19T05:23:18;22.60;;;8.05;;
25345;SDS011;13300;51.032;3.710;2023-03-19T05:25:44;14.27;;;7.60;;
25345;SDS011;13300;51.032;3.710;2023-03-19T05:28:11;19.90;;;7.70;;
25345;SDS011;13300;51.032;3.710;2023-03-19T05:30:37;18.63;;;7.13;;
25345;SDS011;13300;51.032;3.710;2023-03-19T05:33:05;17.98;;;7.22;;
25345;SDS011;13300;51.032;3.710;2023-03-19T05:35:31;18.83;;;7.22;;
25345;SDS011;13300;51.032;3.710;2023-03-19T05:38:07;18.20;;;6.78;;
25345;SDS011;13300;51.032;3.710;2023-03-19T05:40:33;17.95;;;7.05;;
25345;SDS011;13300;51.032;3.710;2023-03-19T05:43:02;14.65;;;6.90;;
25345;SDS011;13300;51.032;3.710;2023-03-19T05:45:27;16.70;;;6.68;;
25345;SDS011;13300;51.032;3.710;2023-03-19T05:47:53;18.52;;;7.32;;
25345;SDS011;13300;51.032;3.710;2023-03-19T05:50:19;19.27;;;7.40;;
25345;SDS011;13300;51.032;3.710;2023-03-19T05:52:46;16.58;;;6.80;;
25345;SDS011;13300;51.032;3.710;2023-03-19T05:55:11;16.75;;;6.10;;
25345;SDS011;13300;51.032;3.710;2023-03-19T05:57:37;17.25;;;6.72;;
25345;SDS011;13300;51.032;3.710;2023-03-19T06:09:30;16.50;;;6.22;;
25345;SDS011;13300;51.032;3.710;2023-03-19T06:11:56;17.70;;;6.57;;
25345;SDS011;13300;51.032;3.710;2023-03-19T06:14:22;18.77;;;6.40;;
25345;SDS011;13300;51.032;3.710;2023-03-19T06:16:49;22.38;;;7.35;;
25345;SDS011;13300;51.032;3.710;2023-03-19T06:19:16;18.33;;;6.53;;
25345;SDS011;13300;51.032;3.710;2023-03-19T06:21:44;18.48;;;6.90;;
25345;SDS011;13300;51.032;3.710;2023-03-19T06:24:10;21.65;;;7.72;;
25345;SDS011;13300;51.032;3.710;2023-03-19T06:26:36;17.58;;;7.80;;
25345;SDS011;13300;51.032;3.710;2023-03-19T06:29:02;19.58;;;8.50;;
25345;SDS011;13300;51.032;3.710;2023-03-19T06:31:28;26.73;;;8.73;;
25345;SDS011;13300;51.032;3.710;2023-03-19T06:33:54;20.05;;;8.50;;
25345;SDS011;13300;51.032;3.710;2023-03-19T06:36:21;19.80;;;8.85;;
25345;SDS011;13300;51.032;3.710;2023-03-19T06:38:47;22.00;;;8.05;;
25345;SDS011;13300;51.032;3.710;2023-03-19T06:41:13;20.90;;;8.85;;
25345;SDS011;13300;51.032;3.710;2023-03-19T06:43:39;21.73;;;8.63;;
25345;SDS011;13300;51.032;3.710;2023-03-19T06:46:06;19.10;;;8.85;;
25345;SDS011;13300;51.032;3.710;2023-03-19T06:48:40;18.52;;;8.95;;
25345;SDS011;13300;51.032;3.710;2023-03-19T06:51:06;21.52;;;8.45;;
25345;SDS011;13300;51.032;3.710;2023-03-19T06:53:32;19.98;;;8.55;;
25345;SDS011;13300;51.032;3.710;2023-03-19T06:55:58;20.48;;;8.50;;
25345;SDS011;13300;51.032;3.710;2023-03-19T06:58:24;18.90;;;7.90;;
25345;SDS011;13300;51.032;3.710;2023-03-19T07:00:51;16.58;;;8.30;;
25345;SDS011;13300;51.032;3.710;2023-03-19T07:03:18;14.55;;;7.97;;
25345;SDS011;13300;51.032;3.710;2023-03-19T07:05:43;23.38;;;9.77;;
25345;SDS011;13300;51.032;3.710;2023-03-19T07:08:09;22.50;;;9.55;;
25345;SDS011;13300;51.032;3.710;2023-03-19T07:10:39;23.17;;;9.38;;
25345;SDS011;13300;51.032;3.710;2023-03-19T07:13:05;20.77;;;9.68;;
25345;SDS011;13300;51.032;3.710;2023-03-19T07:15:31;20.50;;;9.15;;
25345;SDS011;13300;51.032;3.710;2023-03-19T07:17:57;19.17;;;8.80;;
25345;SDS011;13300;51.032;3.710;2023-03-19T07:20:23;21.27;;;9.68;;
25345;SDS011;13300;51.032;3.710;2023-03-19T07:25:35;20.42;;;9.40;;
25345;SDS011;13300;51.032;3.710;2023-03-19T07:28:01;19.15;;;8.48;;
25345;SDS011;13300;51.032;3.710;2023-03-19T07:30:27;17.60;;;8.55;;
25345;SDS011;13300;51.032;3.710;2023-03-19T07:32:53;18.92;;;8.05;;
25345;SDS011;13300;51.032;3.710;2023-03-19T07:35:19;18.50;;;8.50;;
25345;SDS011;13300;51.032;3.710;2023-03-19T07:37:46;19.40;;;7.70;;
25345;SDS011;13300;51.032;3.710;2023-03-19T07:40:12;19.38;;;9.82;;
25345;SDS011;13300;51.032;3.710;2023-03-19T07:42:38;20.23;;;9.50;;
25345;SDS011;13300;51.032;3.710;2023-03-19T07:45:04;19.48;;;9.48;;
25345;SDS011;13300;51.032;3.710;2023-03-19T07:47:30;19.42;;;9.90;;
25345;SDS011;13300;51.032;3.710;2023-03-19T07:49:56;19.17;;;9.90;;
25345;SDS011;13300;51.032;3.710;2023-03-19T07:52:24;16.85;;;8.77;;
25345;SDS011;13300;51.032;3.710;2023-03-19T07:54:51;21.13;;;10.85;;
25345;SDS011;13300;51.032;3.710;2023-03-19T07:57:17;22.75;;;10.68;;
25345;SDS011;13300;51.032;3.710;2023-03-19T07:59:43;22.42;;;10.05;;
25345;SDS011;13300;51.032;3.710;2023-03-19T08:02:10;20.92;;;10.43;;
25345;SDS011;13300;51.032;3.710;2023-03-19T08:04:36;21.17;;;9.25;;
25345;SDS011;13300;51.032;3.710;2023-03-19T08:07:02;23.48;;;10.60;;
25345;SDS011;13300;51.032;3.710;2023-03-19T08:09:28;19.02;;;10.40;;
25345;SDS011;13300;51.032;3.710;2023-03-19T08:11:54;20.67;;;10.82;;
25345;SDS011;13300;51.032;3.710;2023-03-19T08:14:20;18.60;;;10.70;;
25345;SDS011;13300;51.032;3.710;2023-03-19T08:16:49;19.13;;;10.30;;
25345;SDS011;13300;51.032;3.710;2023-03-19T08:19:15;19.33;;;10.00;;
25345;SDS011;13300;51.032;3.710;2023-03-19T08:21:44;20.92;;;9.35;;
25345;SDS011;13300;51.032;3.710;2023-03-19T08:24:10;16.85;;;9.95;;
25345;SDS011;13300;51.032;3.710;2023-03-19T08:26:36;20.98;;;9.65;;
25345;SDS011;13300;51.032;3.710;2023-03-19T08:29:02;19.30;;;10.65;;
25345;SDS011;13300;51.032;3.710;2023-03-19T08:31:28;15.95;;;9.77;;
25345;SDS011;13300;51.032;3.710;2023-03-19T08:33:54;20.75;;;10.48;;
25345;SDS011;13300;51.032;3.710;2023-03-19T08:36:20;23.63;;;10.90;;
25345;SDS011;13300;51.032;3.710;2023-03-19T08:38:53;22.00;;;11.32;;
25345;SDS011;13300;51.032;3.710;2023-03-19T08:41:20;22.02;;;12.50;;
25345;SDS011;13300;51.032;3.710;2023-03-19T08:43:50;22.30;;;12.85;;
25345;SDS011;13300;51.032;3.710;2023-03-19T08:46:18;24.67;;;13.95;;
25345;SDS011;13300;51.032;3.710;2023-03-19T08:48:46;25.65;;;12.73;;
25345;SDS011;13300;51.032;3.710;2023-03-19T08:51:12;20.10;;;12.48;;
25345;SDS011;13300;51.032;3.710;2023-03-19T08:53:38;22.30;;;12.40;;
25345;SDS011;13300;51.032;3.710;2023-03-19T08:56:05;21.60;;;12.65;;
25345;SDS011;13300;51.032;3.710;2023-03-19T08:58:32;26.05;;;15.13;;
25345;SDS011;13300;51.032;3.710;2023-03-19T09:01:09;24.00;;;13.50;;
25345;SDS011;13300;51.032;3.710;2023-03-19T09:03:37;26.55;;;12.70;;
25345;SDS011;13300;51.032;3.710;2023-03-19T09:06:04;21.63;;;13.38;;
25345;SDS011;13300;51.032;3.710;2023-03-19T09:11:54;25.52;;;13.65;;
25345;SDS011;13300;51.032;3.710;2023-03-19T09:14:27;25.42;;;14.30;;
25345;SDS011;13300;51.032;3.710;2023-03-19T09:16:53;31.10;;;14.80;;
25345;SDS011;13300;51.032;3.710;2023-03-19T09:19:19;29.50;;;15.18;;
25345;SDS011;13300;51.032;3.710;2023-03-19T09:21:46;28.77;;;15.27;;
25345;SDS011;13300;51.032;3.710;2023-03-19T09:24:12;31.83;;;15.80;;
25345;SDS011;13300;51.032;3.710;2023-03-19T09:26:47;29.08;;;15.30;;
25345;SDS011;13300;51.032;3.710;2023-03-19T09:29:14;29.10;;;15.38;;
25345;SDS011;13300;51.032;3.710;2023-03-19T09:31:39;31.08;;;16.77;;
25345;SDS011;13300;51.032;3.710;2023-03-19T09:34:05;31.90;;;16.80;;
25345;SDS011;13300;51.032;3.710;2023-03-19T09:36:35;34.05;;;17.52;;
25345;SDS011;13300;51.032;3.710;2023-03-19T09:39:02;37.40;;;16.38;;
25345;SDS011;13300;51.032;3.710;2023-03-19T09:44:27;33.22;;;17.05;;
25345;SDS011;13300;51.032;3.710;2023-03-19T09:49:59;31.15;;;16.42;;
25345;SDS011;13300;51.032;3.710;2023-03-19T09:56:14;34.90;;;17.17;;
25345;SDS011;13300;51.032;3.710;2023-03-19T10:01:48;36.10;;;17.35;;
25345;SDS011;13300;51.032;3.710;2023-03-19T10:04:46;37.42;;;16.98;;
25345;SDS011;13300;51.032;3.710;2023-03-19T10:16:04;29.98;;;13.68;;
25345;SDS011;13300;51.032;3.710;2023-03-19T10:25:45;28.90;;;13.52;;
25345;SDS011;13300;51.032;3.710;2023-03-19T10:46:44;14.52;;;8.95;;
25345;SDS011;13300;51.032;3.710;2023-03-19T10:49:15;14.18;;;9.15;;
25345;SDS011;13300;51.032;3.710;2023-03-19T10:51:44;17.13;;;10.35;;
25345;SDS011;13300;51.032;3.710;2023-03-19T10:54:20;15.25;;;9.52;;
25345;SDS011;13300;51.032;3.710;2023-03-19T10:56:48;16.17;;;9.55;;
25345;SDS011;13300;51.032;3.710;2023-03-19T10:59:19;15.40;;;9.73;;
25345;SDS011;13300;51.032;3.710;2023-03-19T11:02:16;14.48;;;8.88;;
25345;SDS011;13300;51.032;3.710;2023-03-19T11:04:43;16.38;;;10.07;;
25345;SDS011;13300;51.032;3.710;2023-03-19T11:07:14;15.07;;;9.40;;
25345;SDS011;13300;51.032;3.710;2023-03-19T11:09:45;17.05;;;9.95;;
25345;SDS011;13300;51.032;3.710;2023-03-19T11:15:25;16.10;;;8.77;;
25345;SDS011;13300;51.032;3.710;2023-03-19T11:17:58;10.15;;;6.28;;
25345;SDS011;13300;51.032;3.710;2023-03-19T11:21:07;9.05;;;6.43;;
25345;SDS011;13300;51.032;3.710;2023-03-19T11:23:58;11.43;;;6.50;;
25345;SDS011;13300;51.032;3.710;2023-03-19T11:26:40;10.18;;;5.90;;
25345;SDS011;13300;51.032;3.710;2023-03-19T11:29:29;10.63;;;6.13;;
25345;SDS011;13300;51.032;3.710;2023-03-19T11:34:48;9.07;;;6.15;;
25345;SDS011;13300;51.032;3.710;2023-03-19T11:40:28;8.02;;;5.50;;
25345;SDS011;13300;51.032;3.710;2023-03-19T11:48:33;8.25;;;5.57;;
25345;SDS011;13300;51.032;3.710;2023-03-19T11:57:17;7.30;;;4.93;;
25345;SDS011;13300;51.032;3.710;2023-03-19T12:03:06;8.07;;;4.90;;
25345;SDS011;13300;51.032;3.710;2023-03-19T12:12:01;6.82;;;3.78;;
25345;SDS011;13300;51.032;3.710;2023-03-19T12:14:55;8.38;;;3.85;;
25345;SDS011;13300;51.032;3.710;2023-03-19T12:20:28;9.60;;;3.65;;
25345;SDS011;13300;51.032;3.710;2023-03-19T12:26:08;8.88;;;3.72;;
25345;SDS011;13300;51.032;3.710;2023-03-19T12:31:52;5.65;;;3.10;;
25345;SDS011;13300;51.032;3.710;2023-03-19T12:34:39;5.10;;;2.35;;
25345;SDS011;13300;51.032;3.710;2023-03-19T12:40:37;4.22;;;2.10;;
25345;SDS011;13300;51.032;3.710;2023-03-19T12:46:33;3.40;;;1.88;;
25345;SDS011;13300;51.032;3.710;2023-03-19T12:52:02;3.75;;;1.60;;
25345;SDS011;13300;51.032;3.710;2023-03-19T12:54:44;5.00;;;1.50;;
25345;SDS011;13300;51.032;3.710;2023-03-19T12:57:26;3.85;;;1.48;;
25345;SDS011;13300;51.032;3.710;2023-03-19T13:02:39;5.13;;;1.60;;
25345;SDS011;13300;51.032;3.710;2023-03-19T13:05:16;6.22;;;1.83;;
25345;SDS011;13300;51.032;3.710;2023-03-19T13:10:55;6.43;;;1.98;;
25345;SDS011;13300;51.032;3.710;2023-03-19T13:21:45;5.45;;;2.50;;
25345;SDS011;13300;51.032;3.710;2023-03-19T13:26:54;12.10;;;3.75;;
25345;SDS011;13300;51.032;3.710;2023-03-19T13:29:34;7.05;;;3.78;;
25345;SDS011;13300;51.032;3.710;2023-03-19T13:35:09;8.52;;;3.88;;
25345;SDS011;13300;51.032;3.710;2023-03-19T13:37:53;8.15;;;3.67;;
25345;SDS011;13300;51.032;3.710;2023-03-19T13:40:55;9.15;;;3.80;;
25345;SDS011;13300;51.032;3.710;2023-03-19T13:43:41;5.22;;;3.78;;
25345;SDS011;13300;51.032;3.710;2023-03-19T13:52:00;10.32;;;4.65;;
25345;SDS011;13300;51.032;3.710;2023-03-19T13:55:00;8.02;;;4.60;;
25345;SDS011;13300;51.032;3.710;2023-03-19T14:03:20;10.95;;;5.25;;
25345;SDS011;13300;51.032;3.710;2023-03-19T14:05:49;10.50;;;4.88;;
25345;SDS011;13300;51.032;3.710;2023-03-19T14:08:23;10.77;;;4.93;;
25345;SDS011;13300;51.032;3.710;2023-03-19T14:11:08;11.55;;;4.80;;
25345;SDS011;13300;51.032;3.710;2023-03-19T14:13:50;13.18;;;5.07;;
25345;SDS011;13300;51.032;3.710;2023-03-19T14:19:42;12.70;;;4.72;;
25345;SDS011;13300;51.032;3.710;2023-03-19T14:22:20;9.55;;;4.22;;
25345;SDS011;13300;51.032;3.710;2023-03-19T14:25:16;9.90;;;4.72;;
25345;SDS011;13300;51.032;3.710;2023-03-19T14:27:53;14.55;;;4.50;;
25345;SDS011;13300;51.032;3.710;2023-03-19T14:33:13;11.40;;;4.25;;
25345;SDS011;13300;51.032;3.710;2023-03-19T14:35:50;9.63;;;4.22;;
25345;SDS011;13300;51.032;3.710;2023-03-19T14:38:39;11.60;;;3.65;;
25345;SDS011;13300;51.032;3.710;2023-03-19T14:41:15;10.88;;;3.90;;
25345;SDS011;13300;51.032;3.710;2023-03-19T14:43:57;9.85;;;4.20;;
25345;SDS011;13300;51.032;3.710;2023-03-19T14:55:15;9.93;;;3.60;;
25345;SDS011;13300;51.032;3.710;2023-03-19T14:57:47;7.77;;;3.30;;
25345;SDS011;13300;51.032;3.710;2023-03-19T15:00:16;8.65;;;3.65;;
25345;SDS011;13300;51.032;3.710;2023-03-19T15:02:48;5.07;;;3.45;;
25345;SDS011;13300;51.032;3.710;2023-03-19T15:05:26;7.55;;;3.22;;
25345;SDS011;13300;51.032;3.710;2023-03-19T15:08:10;5.65;;;3.42;;
25345;SDS011;13300;51.032;3.710;2023-03-19T15:10:50;7.72;;;3.63;;
25345;SDS011;13300;51.032;3.710;2023-03-19T15:16:30;8.45;;;3.90;;
25345;SDS011;13300;51.032;3.710;2023-03-19T15:19:01;7.35;;;3.60;;
25345;SDS011;13300;51.032;3.710;2023-03-19T15:21:28;8.52;;;4.00;;
25345;SDS011;13300;51.032;3.710;2023-03-19T15:23:58;9.70;;;4.00;;
25345;SDS011;13300;51.032;3.710;2023-03-19T15:26:29;10.20;;;5.45;;
25345;SDS011;13300;51.032;3.710;2023-03-19T15:28:56;9.50;;;4.68;;
25345;SDS011;13300;51.032;3.710;2023-03-19T15:34:19;8.30;;;3.55;;
25345;SDS011;13300;51.032;3.710;2023-03-19T15:36:52;7.95;;;4.03;;
25345;SDS011;13300;51.032;3.710;2023-03-19T15:39:27;9.07;;;4.22;;
25345;SDS011;13300;51.032;3.710;2023-03-19T15:41:58;9.25;;;4.38;;
25345;SDS011;13300;51.032;3.710;2023-03-19T15:44:35;5.45;;;4.22;;
25345;SDS011;13300;51.032;3.710;2023-03-19T15:47:10;8.32;;;4.32;;
25345;SDS011;13300;51.032;3.710;2023-03-19T15:49:42;7.85;;;4.32;;
25345;SDS011;13300;51.032;3.710;2023-03-19T15:52:13;9.10;;;4.38;;
25345;SDS011;13300;51.032;3.710;2023-03-19T15:54:41;10.68;;;4.40;;
25345;SDS011;13300;51.032;3.710;2023-03-19T15:57:07;7.88;;;4.40;;
25345;SDS011;13300;51.032;3.710;2023-03-19T15:59:37;9.77;;;4.50;;
25345;SDS011;13300;51.032;3.710;2023-03-19T16:02:10;9.38;;;4.47;;
25345;SDS011;13300;51.032;3.710;2023-03-19T16:04:46;9.32;;;4.40;;
25345;SDS011;13300;51.032;3.710;2023-03-19T16:07:23;7.95;;;4.40;;
25345;SDS011;13300;51.032;3.710;2023-03-19T16:10:23;9.30;;;4.63;;
25345;SDS011;13300;51.032;3.710;2023-03-19T16:13:24;11.73;;;3.80;;
25345;SDS011;13300;51.032;3.710;2023-03-19T16:16:49;9.45;;;5.05;;
25345;SDS011;13300;51.032;3.710;2023-03-19T16:22:24;8.57;;;4.07;;
25345;SDS011;13300;51.032;3.710;2023-03-19T16:24:59;9.95;;;4.32;;
25345;SDS011;13300;51.032;3.710;2023-03-19T16:27:34;7.65;;;4.28;;
25345;SDS011;13300;51.032;3.710;2023-03-19T16:30:23;8.65;;;4.82;;
25345;SDS011;13300;51.032;3.710;2023-03-19T16:35:43;10.85;;;4.60;;
25345;SDS011;13300;51.032;3.710;2023-03-19T16:39:20;11.35;;;5.25;;
25345;SDS011;13300;51.032;3.710;2023-03-19T16:42:23;10.45;;;5.68;;
25345;SDS011;13300;51.032;3.710;2023-03-19T16:47:54;14.10;;;6.35;;
25345;SDS011;13300;51.032;3.710;2023-03-19T16:50:36;17.08;;;7.30;;
25345;SDS011;13300;51.032;3.710;2023-03-19T16:53:23;11.27;;;5.60;;
25345;SDS011;13300;51.032;3.710;2023-03-19T16:55:51;13.57;;;6.40;;
25345;SDS011;13300;51.032;3.710;2023-03-19T16:58:28;13.95;;;5.57;;
25345;SDS011;13300;51.032;3.710;2023-03-19T17:01:14;14.05;;;5.47;;
25345;SDS011;13300;51.032;3.710;2023-03-19T17:03:43;11.55;;;6.35;;
25345;SDS011;13300;51.032;3.710;2023-03-19T17:06:11;13.40;;;6.22;;
25345;SDS011;13300;51.032;3.710;2023-03-19T17:08:41;21.63;;;8.48;;
25345;SDS011;13300;51.032;3.710;2023-03-19T17:11:40;15.10;;;6.78;;
25345;SDS011;13300;51.032;3.710;2023-03-19T17:14:00;14.75;;;6.60;;
25345;SDS011;13300;51.032;3.710;2023-03-19T17:16:27;14.57;;;7.07;;
25345;SDS011;13300;51.032;3.710;2023-03-19T17:18:54;14.73;;;6.32;;
25345;SDS011;13300;51.032;3.710;2023-03-19T17:24:15;14.45;;;7.07;;
25345;SDS011;13300;51.032;3.710;2023-03-19T17:26:46;13.65;;;6.70;;
25345;SDS011;13300;51.032;3.710;2023-03-19T17:29:20;13.35;;;6.75;;
25345;SDS011;13300;51.032;3.710;2023-03-19T17:34:57;11.50;;;6.22;;
25345;SDS011;13300;51.032;3.710;2023-03-19T17:37:24;13.52;;;6.78;;
25345;SDS011;13300;51.032;3.710;2023-03-19T17:39:53;14.70;;;7.28;;
25345;SDS011;13300;51.032;3.710;2023-03-19T17:42:20;13.20;;;7.03;;
25345;SDS011;13300;51.032;3.710;2023-03-19T17:44:48;12.50;;;7.10;;
25345;SDS011;13300;51.032;3.710;2023-03-19T17:47:17;10.57;;;6.97;;
25345;SDS011;13300;51.032;3.710;2023-03-19T17:49:44;16.92;;;7.57;;
25345;SDS011;13300;51.032;3.710;2023-03-19T17:52:17;17.15;;;7.88;;
25345;SDS011;13300;51.032;3.710;2023-03-19T17:54:49;14.50;;;8.13;;
25345;SDS011;13300;51.032;3.710;2023-03-19T17:58:19;13.90;;;6.93;;
25345;SDS011;13300;51.032;3.710;2023-03-19T18:00:51;15.27;;;7.25;;
25345;SDS011;13300;51.032;3.710;2023-03-19T18:03:21;15.43;;;5.97;;
25345;SDS011;13300;51.032;3.710;2023-03-19T18:05:56;15.27;;;7.00;;
25345;SDS011;13300;51.032;3.710;2023-03-19T18:08:22;11.05;;;6.50;;
25345;SDS011;13300;51.032;3.710;2023-03-19T18:10:57;13.75;;;7.10;;
25345;SDS011;13300;51.032;3.710;2023-03-19T18:13:26;14.43;;;6.35;;
25345;SDS011;13300;51.032;3.710;2023-03-19T18:22:11;11.77;;;6.80;;
25345;SDS011;13300;51.032;3.710;2023-03-19T18:24:41;9.38;;;6.38;;
25345;SDS011;13300;51.032;3.710;2023-03-19T18:27:11;15.75;;;7.65;;
25345;SDS011;13300;51.032;3.710;2023-03-19T18:29:39;13.93;;;7.35;;
25345;SDS011;13300;51.032;3.710;2023-03-19T18:32:29;14.85;;;7.60;;
25345;SDS011;13300;51.032;3.710;2023-03-19T18:35:41;16.90;;;8.07;;
25345;SDS011;13300;51.032;3.710;2023-03-19T18:38:18;19.48;;;8.20;;
25345;SDS011;13300;51.032;3.710;2023-03-19T18:40:48;14.88;;;8.13;;
25345;SDS011;13300;51.032;3.710;2023-03-19T18:43:42;15.52;;;7.90;;
25345;SDS011;13300;51.032;3.710;2023-03-19T18:46:11;14.50;;;7.65;;
25345;SDS011;13300;51.032;3.710;2023-03-19T18:49:24;17.77;;;9.00;;
25345;SDS011;13300;51.032;3.710;2023-03-19T18:51:51;13.00;;;8.35;;
25345;SDS011;13300;51.032;3.710;2023-03-19T18:54:17;14.13;;;7.97;;
25345;SDS011;13300;51.032;3.710;2023-03-19T18:56:46;15.40;;;8.45;;
25345;SDS011;13300;51.032;3.710;2023-03-19T18:59:19;12.73;;;8.07;;
25345;SDS011;13300;51.032;3.710;2023-03-19T19:01:52;18.67;;;8.52;;
25345;SDS011;13300;51.032;3.710;2023-03-19T19:04:38;18.95;;;8.88;;
25345;SDS011;13300;51.032;3.710;2023-03-19T19:07:12;14.00;;;8.60;;
25345;SDS011;13300;51.032;3.710;2023-03-19T19:09:43;17.08;;;8.98;;
25345;SDS011;13300;51.032;3.710;2023-03-19T19:15:09;16.50;;;9.70;;
25345;SDS011;13300;51.032;3.710;2023-03-19T19:17:56;20.10;;;9.82;;
25345;SDS011;13300;51.032;3.710;2023-03-19T19:20:31;19.40;;;10.15;;
25345;SDS011;13300;51.032;3.710;2023-03-19T19:26:23;16.67;;;9.95;;
25345;SDS011;13300;51.032;3.710;2023-03-19T19:28:51;22.10;;;10.45;;
25345;SDS011;13300;51.032;3.710;2023-03-19T19:31:24;17.15;;;9.95;;
25345;SDS011;13300;51.032;3.710;2023-03-19T19:33:52;18.30;;;10.07;;